sensor_id;sensor_type;location;lat;lon;timestamp;pressure;altitude;pressure_sealevel;temperature;humidity
37298;BME280;30517;51.932;4.278;2023-05-02T00:00:58;102157.03;;;17.21;55.33
37298;BME280;30517;51.932;4.278;2023-05-02T00:03:41;102137.56;;;17.10;55.00
37298;BME280;30517;51.932;4.278;2023-05-02T00:06:22;102098.72;;;16.81;55.34
37298;BME280;30517;51.932;4.278;2023-05-02T00:09:03;102167.75;;;17.15;55.38
37298;BME280;30517;51.932;4.278;2023-05-02T00:11:44;102168.66;;;17.13;55.44
37298;BME280;30517;51.932;4.278;2023-05-02T00:14:25;102148.28;;;17.04;55.37
37298;BME280;30517;51.932;4.278;2023-05-02T00:17:06;102148.28;;;17.04;55.50
37298;BME280;30517;51.932;4.278;2023-05-02T00:19:47;102140.38;;;16.93;55.29
37298;BME280;30517;51.932;4.278;2023-05-02T00:22:28;102120.03;;;16.81;55.36
37298;BME280;30517;51.932;4.278;2023-05-02T00:25:09;102132.44;;;16.86;55.15
37298;BME280;30517;51.932;4.278;2023-05-02T00:27:55;102166.97;;;16.98;55.32
37298;BME280;30517;51.932;4.278;2023-05-02T00:30:36;102030.81;;;16.16;55.09
37298;BME280;30517;51.932;4.278;2023-05-02T00:33:16;102066.19;;;16.36;55.29
37298;BME280;30517;51.932;4.278;2023-05-02T00:35:57;102168.78;;;16.93;55.38
37298;BME280;30517;51.932;4.278;2023-05-02T00:38:38;102173.28;;;16.91;55.36
37298;BME280;30517;51.932;4.278;2023-05-02T00:41:19;102105.13;;;16.53;55.43
37298;BME280;30517;51.932;4.278;2023-05-02T00:44:00;102158.19;;;16.88;55.47
37298;BME280;30517;51.932;4.278;2023-05-02T00:46:41;102145.81;;;16.75;55.39
37298;BME280;30517;51.932;4.278;2023-05-02T00:49:22;102156.44;;;16.76;54.83
37298;BME280;30517;51.932;4.278;2023-05-02T00:52:03;102129.97;;;16.58;55.36
37298;BME280;30517;51.932;4.278;2023-05-02T00:54:44;102164.44;;;16.79;54.99
37298;BME280;30517;51.932;4.278;2023-05-02T00:57:25;102165.38;;;16.77;55.37
37298;BME280;30517;51.932;4.278;2023-05-02T01:00:06;102173.34;;;16.75;55.30
37298;BME280;30517;51.932;4.278;2023-05-02T01:02:53;102143.28;;;16.58;55.12
37298;BME280;30517;51.932;4.278;2023-05-02T01:08:59;102176.94;;;16.70;55.33
37298;BME280;30517;51.932;4.278;2023-05-02T01:11:58;102172.50;;;16.66;55.05
37298;BME280;30517;51.932;4.278;2023-05-02T01:14:44;102148.66;;;16.44;55.32
37298;BME280;30517;51.932;4.278;2023-05-02T01:17:29;102175.25;;;16.53;55.27
37298;BME280;30517;51.932;4.278;2023-05-02T01:20:13;102192.09;;;16.62;55.18
37298;BME280;30517;51.932;4.278;2023-05-02T01:23:13;102198.31;;;16.57;55.16
37298;BME280;30517;51.932;4.278;2023-05-02T01:26:02;102188.56;;;16.56;55.23
37298;BME280;30517;51.932;4.278;2023-05-02T01:28:58;102194.78;;;16.54;55.23
37298;BME280;30517;51.932;4.278;2023-05-02T01:31:41;102201.88;;;16.52;55.00
37298;BME280;30517;51.932;4.278;2023-05-02T01:34:24;102191.22;;;16.52;55.20
37298;BME280;30517;51.932;4.278;2023-05-02T01:37:07;102200.16;;;16.45;55.12
37298;BME280;30517;51.932;4.278;2023-05-02T01:39:51;102193.09;;;16.33;55.39
37298;BME280;30517;51.932;4.278;2023-05-02T01:42:35;102221.47;;;16.45;55.45
37298;BME280;30517;51.932;4.278;2023-05-02T01:45:18;102146.19;;;16.06;55.18
37298;BME280;30517;51.932;4.278;2023-05-02T01:48:00;102217.03;;;16.44;55.46
37298;BME280;30517;51.932;4.278;2023-05-02T01:50:43;102217.03;;;16.45;54.91
37298;BME280;30517;51.932;4.278;2023-05-02T01:53:27;102202.88;;;16.32;55.25
37298;BME280;30517;51.932;4.278;2023-05-02T01:56:09;102196.69;;;16.23;55.02
37298;BME280;30517;51.932;4.278;2023-05-02T02:05:59;102237.50;;;16.29;55.20
37298;BME280;30517;51.932;4.278;2023-05-02T02:08:40;102234.84;;;16.25;55.23
37298;BME280;30517;51.932;4.278;2023-05-02T02:11:30;102243.75;;;16.22;54.99
37298;BME280;30517;51.932;4.278;2023-05-02T02:14:21;102242.00;;;16.15;55.56
37298;BME280;30517;51.932;4.278;2023-05-02T02:17:14;102256.19;;;16.23;55.38
37298;BME280;30517;51.932;4.278;2023-05-02T02:20:00;102228.72;;;16.03;55.35
37298;BME280;30517;51.932;4.278;2023-05-02T02:22:43;102255.28;;;16.21;55.57
37298;BME280;30517;51.932;4.278;2023-05-02T02:25:24;102235.81;;;16.04;55.42
37298;BME280;30517;51.932;4.278;2023-05-02T02:28:06;102258.84;;;16.17;55.29
37298;BME280;30517;51.932;4.278;2023-05-02T02:30:47;102264.16;;;16.17;55.25
37298;BME280;30517;51.932;4.278;2023-05-02T02:33:29;102259.72;;;16.14;55.16
37298;BME280;30517;51.932;4.278;2023-05-02T02:36:23;102266.88;;;16.09;55.13
37298;BME280;30517;51.932;4.278;2023-05-02T02:42:38;102257.09;;;16.05;55.48
37298;BME280;30517;51.932;4.278;2023-05-02T02:45:34;102252.72;;;15.93;55.04
37298;BME280;30517;51.932;4.278;2023-05-02T02:51:45;102272.19;;;16.03;55.28
37298;BME280;30517;51.932;4.278;2023-05-02T02:54:49;102255.38;;;15.81;54.99
37298;BME280;30517;51.932;4.278;2023-05-02T02:57:48;102285.50;;;16.00;54.81
37298;BME280;30517;51.932;4.278;2023-05-02T03:00:31;102287.28;;;16.00;54.88
37298;BME280;30517;51.932;4.278;2023-05-02T03:03:13;102289.94;;;15.98;55.03
37298;BME280;30517;51.932;4.278;2023-05-02T03:05:55;102297.94;;;15.97;55.41
37298;BME280;30517;51.932;4.278;2023-05-02T03:08:40;102270.47;;;15.78;55.02
37298;BME280;30517;51.932;4.278;2023-05-02T03:11:22;102275.78;;;15.81;55.04
37298;BME280;30517;51.932;4.278;2023-05-02T03:14:02;102305.94;;;15.90;55.09
37298;BME280;30517;51.932;4.278;2023-05-02T03:16:43;102266.88;;;15.65;55.03
37298;BME280;30517;51.932;4.278;2023-05-02T03:19:24;102303.28;;;15.78;55.07
37298;BME280;30517;51.932;4.278;2023-05-02T03:22:05;102245.63;;;15.37;55.25
37298;BME280;30517;51.932;4.278;2023-05-02T03:24:46;102317.44;;;15.79;55.24
37298;BME280;30517;51.932;4.278;2023-05-02T03:27:27;102282.88;;;15.56;55.01
37298;BME280;30517;51.932;4.278;2023-05-02T03:30:08;102321.00;;;15.84;55.35
37298;BME280;30517;51.932;4.278;2023-05-02T03:32:49;102334.28;;;15.82;54.98
37298;BME280;30517;51.932;4.278;2023-05-02T03:35:30;102339.63;;;15.82;55.13
37298;BME280;30517;51.932;4.278;2023-05-02T03:38:10;102334.28;;;15.79;55.16
37298;BME280;30517;51.932;4.278;2023-05-02T03:40:56;102308.56;;;15.60;54.85
37298;BME280;30517;51.932;4.278;2023-05-02T03:43:37;102350.28;;;15.78;54.79
37298;BME280;30517;51.932;4.278;2023-05-02T03:46:18;102312.06;;;15.26;54.77
37298;BME280;30517;51.932;4.278;2023-05-02T03:48:59;102330.75;;;15.66;54.93
37298;BME280;30517;51.932;4.278;2023-05-02T03:51:40;102300.56;;;15.43;54.69
37298;BME280;30517;51.932;4.278;2023-05-02T03:54:21;102347.63;;;15.70;54.70
37298;BME280;30517;51.932;4.278;2023-05-02T03:57:02;102356.50;;;15.69;55.12
37298;BME280;30517;51.932;4.278;2023-05-02T03:59:43;102354.66;;;15.68;55.01
37298;BME280;30517;51.932;4.278;2023-05-02T04:02:28;102355.56;;;15.67;54.67
37298;BME280;30517;51.932;4.278;2023-05-02T04:05:09;102371.56;;;15.70;54.81
37298;BME280;30517;51.932;4.278;2023-05-02T04:07:50;102379.50;;;15.64;54.74
37298;BME280;30517;51.932;4.278;2023-05-02T04:10:30;102371.53;;;15.61;54.67
37298;BME280;30517;51.932;4.278;2023-05-02T04:13:11;102372.38;;;15.52;55.04
37298;BME280;30517;51.932;4.278;2023-05-02T04:15:52;102385.69;;;15.58;54.82
37298;BME280;30517;51.932;4.278;2023-05-02T04:18:33;102380.38;;;15.54;54.56
37298;BME280;30517;51.932;4.278;2023-05-02T04:21:14;102377.72;;;15.54;54.63
37298;BME280;30517;51.932;4.278;2023-05-02T04:23:57;102386.56;;;15.53;55.04
37298;BME280;30517;51.932;4.278;2023-05-02T04:26:38;102383.03;;;15.51;54.37
37298;BME280;30517;51.932;4.278;2023-05-02T04:29:19;102387.44;;;15.44;54.64
37298;BME280;30517;51.932;4.278;2023-05-02T04:32:00;102390.09;;;15.48;54.62
37298;BME280;30517;51.932;4.278;2023-05-02T04:34:41;102390.97;;;15.43;54.65
37298;BME280;30517;51.932;4.278;2023-05-02T04:37:22;102393.63;;;15.41;54.56
37298;BME280;30517;51.932;4.278;2023-05-02T04:40:03;102402.41;;;15.13;53.74
37298;BME280;30517;51.932;4.278;2023-05-02T04:42:45;102382.88;;;15.00;53.55
37298;BME280;30517;51.932;4.278;2023-05-02T04:45:26;102420.16;;;15.18;53.66
37298;BME280;30517;51.932;4.278;2023-05-02T04:48:06;102413.97;;;15.21;53.65
37298;BME280;30517;51.932;4.278;2023-05-02T04:50:48;102417.53;;;15.23;54.08
37298;BME280;30517;51.932;4.278;2023-05-02T04:53:29;102421.06;;;15.23;53.97
37298;BME280;30517;51.932;4.278;2023-05-02T04:56:10;102432.56;;;15.24;54.24
37298;BME280;30517;51.932;4.278;2023-05-02T04:58:51;102405.94;;;15.09;54.21
37298;BME280;30517;51.932;4.278;2023-05-02T05:01:31;102422.78;;;15.12;53.97
37298;BME280;30517;51.932;4.278;2023-05-02T05:04:12;102437.00;;;15.20;54.41
37298;BME280;30517;51.932;4.278;2023-05-02T05:06:53;102403.25;;;15.01;54.43
37298;BME280;30517;51.932;4.278;2023-05-02T05:09:34;102436.97;;;15.17;54.64
37298;BME280;30517;51.932;4.278;2023-05-02T05:12:15;102416.50;;;14.98;54.44
37298;BME280;30517;51.932;4.278;2023-05-02T05:14:56;102446.72;;;15.17;54.49
37298;BME280;30517;51.932;4.278;2023-05-02T05:17:37;102444.03;;;15.11;54.85
37298;BME280;30517;51.932;4.278;2023-05-02T05:20:18;102456.44;;;15.15;54.37
37298;BME280;30517;51.932;4.278;2023-05-02T05:22:59;102451.13;;;15.07;54.36
37298;BME280;30517;51.932;4.278;2023-05-02T05:25:39;102450.19;;;15.03;54.82
37298;BME280;30517;51.932;4.278;2023-05-02T05:28:20;102434.19;;;14.93;54.54
37298;BME280;30517;51.932;4.278;2023-05-02T05:31:05;102443.94;;;14.92;54.47
37298;BME280;30517;51.932;4.278;2023-05-02T05:33:46;102493.66;;;15.07;54.49
37298;BME280;30517;51.932;4.278;2023-05-02T05:36:27;102455.44;;;14.93;54.67
37298;BME280;30517;51.932;4.278;2023-05-02T05:39:08;102487.41;;;15.07;54.85
37298;BME280;30517;51.932;4.278;2023-05-02T05:41:49;102478.53;;;14.97;54.60
37298;BME280;30517;51.932;4.278;2023-05-02T05:44:30;102444.72;;;14.70;54.73
37298;BME280;30517;51.932;4.278;2023-05-02T05:47:11;102479.34;;;14.90;54.95
37298;BME280;30517;51.932;4.278;2023-05-02T05:49:53;102501.56;;;15.01;54.68
37298;BME280;30517;51.932;4.278;2023-05-02T05:52:34;102501.56;;;14.99;54.72
37298;BME280;30517;51.932;4.278;2023-05-02T05:55:16;102497.97;;;14.91;54.60
37298;BME280;30517;51.932;4.278;2023-05-02T05:57:57;102521.03;;;14.98;54.53
37298;BME280;30517;51.932;4.278;2023-05-02T06:00:38;102523.69;;;14.97;54.74
37298;BME280;30517;51.932;4.278;2023-05-02T06:03:19;102492.53;;;14.73;54.26
37298;BME280;30517;51.932;4.278;2023-05-02T06:06:00;102501.41;;;14.75;54.58
37298;BME280;30517;51.932;4.278;2023-05-02T06:08:41;102536.09;;;14.93;54.35
37298;BME280;30517;51.932;4.278;2023-05-02T06:11:22;102546.69;;;14.92;54.68
37298;BME280;30517;51.932;4.278;2023-05-02T06:14:03;102516.47;;;14.74;55.13
37298;BME280;30517;51.932;4.278;2023-05-02T06:16:44;102547.56;;;14.89;54.93
37298;BME280;30517;51.932;4.278;2023-05-02T06:19:25;102529.75;;;14.76;54.87
37298;BME280;30517;51.932;4.278;2023-05-02T06:22:06;102545.75;;;14.87;54.44
37298;BME280;30517;51.932;4.278;2023-05-02T06:24:46;102551.94;;;14.84;54.66
37298;BME280;30517;51.932;4.278;2023-05-02T06:27:27;102563.47;;;14.86;54.80
37298;BME280;30517;51.932;4.278;2023-05-02T06:30:09;102539.47;;;14.72;55.02
37298;BME280;30517;51.932;4.278;2023-05-02T06:32:50;102551.00;;;14.76;54.97
37298;BME280;30517;51.932;4.278;2023-05-02T06:35:30;102550.09;;;14.72;54.66
37298;BME280;30517;51.932;4.278;2023-05-02T06:38:12;102542.91;;;14.62;54.74
37298;BME280;30517;51.932;4.278;2023-05-02T06:40:53;102583.81;;;14.82;54.14
37298;BME280;30517;51.932;4.278;2023-05-02T06:43:34;102564.22;;;14.67;54.54
37298;BME280;30517;51.932;4.278;2023-05-02T06:46:15;102587.34;;;14.81;54.66
37298;BME280;30517;51.932;4.278;2023-05-02T06:48:56;102607.72;;;14.81;54.54
37298;BME280;30517;51.932;4.278;2023-05-02T06:51:37;102583.69;;;14.69;54.70
37298;BME280;30517;51.932;4.278;2023-05-02T06:54:20;102597.06;;;14.79;54.65
37298;BME280;30517;51.932;4.278;2023-05-02T06:57:01;102591.66;;;14.69;54.71
37298;BME280;30517;51.932;4.278;2023-05-02T06:59:42;102572.09;;;14.60;54.81
37298;BME280;30517;51.932;4.278;2023-05-02T07:02:22;102603.22;;;14.77;54.67
37298;BME280;30517;51.932;4.278;2023-05-02T07:05:04;102581.03;;;14.67;54.73
37298;BME280;30517;51.932;4.278;2023-05-02T07:07:45;102578.34;;;14.61;54.83
37298;BME280;30517;51.932;4.278;2023-05-02T07:10:26;102561.34;;;14.50;54.91
37298;BME280;30517;51.932;4.278;2023-05-02T07:13:06;102604.06;;;14.71;54.71
37298;BME280;30517;51.932;4.278;2023-05-02T07:15:47;102606.75;;;14.73;54.67
37298;BME280;30517;51.932;4.278;2023-05-02T07:18:28;102580.06;;;14.57;54.84
37298;BME280;30517;51.932;4.278;2023-05-02T07:21:09;102588.97;;;14.64;54.90
37298;BME280;30517;51.932;4.278;2023-05-02T07:23:50;102619.13;;;14.71;55.03
37298;BME280;30517;51.932;4.278;2023-05-02T07:26:30;102577.25;;;14.47;54.98
37298;BME280;30517;51.932;4.278;2023-05-02T07:29:11;102609.34;;;14.65;54.89
37298;BME280;30517;51.932;4.278;2023-05-02T07:31:55;102617.31;;;14.68;54.65
37298;BME280;30517;51.932;4.278;2023-05-02T07:34:36;102620.78;;;14.59;55.06
37298;BME280;30517;51.932;4.278;2023-05-02T07:37:16;102627.06;;;14.68;55.52
37298;BME280;30517;51.932;4.278;2023-05-02T07:39:57;102656.28;;;14.68;54.89
37298;BME280;30517;51.932;4.278;2023-05-02T07:42:38;102633.22;;;14.62;55.30
37298;BME280;30517;51.932;4.278;2023-05-02T07:45:20;102647.44;;;14.67;55.42
37298;BME280;30517;51.932;4.278;2023-05-02T07:48:02;102649.22;;;14.67;55.38
37298;BME280;30517;51.932;4.278;2023-05-02T07:50:43;102610.78;;;14.34;55.11
37298;BME280;30517;51.932;4.278;2023-05-02T07:53:24;102653.56;;;14.58;55.30
37298;BME280;30517;51.932;4.278;2023-05-02T07:56:06;102642.00;;;14.58;55.31
37298;BME280;30517;51.932;4.278;2023-05-02T07:58:47;102602.81;;;14.34;54.83
37298;BME280;30517;51.932;4.278;2023-05-02T08:01:30;102664.22;;;14.65;55.16
37298;BME280;30517;51.932;4.278;2023-05-02T08:04:11;102670.41;;;14.65;55.19
37298;BME280;30517;51.932;4.278;2023-05-02T08:06:52;102657.16;;;14.64;55.00
37298;BME280;30517;51.932;4.278;2023-05-02T08:09:34;102618.81;;;14.40;54.94
37298;BME280;30517;51.932;4.278;2023-05-02T08:12:15;102666.00;;;14.64;55.35
37298;BME280;30517;51.932;4.278;2023-05-02T08:14:55;102679.28;;;14.64;55.42
37298;BME280;30517;51.932;4.278;2023-05-02T08:17:36;102677.31;;;14.48;52.27
37298;BME280;30517;51.932;4.278;2023-05-02T08:20:17;102648.47;;;14.04;49.46
37298;BME280;30517;51.932;4.278;2023-05-02T08:22:58;102654.66;;;14.03;48.72
37298;BME280;30517;51.932;4.278;2023-05-02T08:25:39;102670.78;;;14.20;51.72
37298;BME280;30517;51.932;4.278;2023-05-02T08:28:20;102655.69;;;14.15;52.57
37298;BME280;30517;51.932;4.278;2023-05-02T08:31:01;102655.75;;;14.19;52.67
37298;BME280;30517;51.932;4.278;2023-05-02T08:33:41;102684.28;;;14.38;52.87
37298;BME280;30517;51.932;4.278;2023-05-02T08:36:23;102685.19;;;14.42;53.68
37298;BME280;30517;51.932;4.278;2023-05-02T08:39:04;102697.59;;;14.44;53.26
37298;BME280;30517;51.932;4.278;2023-05-02T08:41:47;102659.31;;;14.21;53.29
37298;BME280;30517;51.932;4.278;2023-05-02T08:44:28;102693.19;;;14.43;53.21
37298;BME280;30517;51.932;4.278;2023-05-02T08:47:10;102704.75;;;14.48;53.42
37298;BME280;30517;51.932;4.278;2023-05-02T08:49:54;102705.66;;;14.50;53.33
37298;BME280;30517;51.932;4.278;2023-05-02T08:52:36;102673.50;;;14.24;53.50
37298;BME280;30517;51.932;4.278;2023-05-02T08:55:17;102699.47;;;14.51;53.59
37298;BME280;30517;51.932;4.278;2023-05-02T08:58:08;102715.41;;;14.51;53.77
37298;BME280;30517;51.932;4.278;2023-05-02T09:00:50;102699.38;;;14.42;53.51
37298;BME280;30517;51.932;4.278;2023-05-02T09:03:33;102726.97;;;14.53;53.85
37298;BME280;30517;51.932;4.278;2023-05-02T09:06:16;102647.63;;;14.06;53.53
37298;BME280;30517;51.932;4.278;2023-05-02T09:08:59;102686.00;;;14.34;54.10
37298;BME280;30517;51.932;4.278;2023-05-02T09:11:40;102701.16;;;14.46;53.43
37298;BME280;30517;51.932;4.278;2023-05-02T09:14:21;102732.31;;;14.56;53.72
37298;BME280;30517;51.932;4.278;2023-05-02T09:17:03;102669.97;;;14.28;53.96
37298;BME280;30517;51.932;4.278;2023-05-02T09:19:43;102720.78;;;14.57;53.87
37298;BME280;30517;51.932;4.278;2023-05-02T09:22:24;102740.28;;;14.58;53.89
37298;BME280;30517;51.932;4.278;2023-05-02T09:25:05;102724.38;;;14.59;53.79
37298;BME280;30517;51.932;4.278;2023-05-02T09:27:54;102732.34;;;14.59;53.62
37298;BME280;30517;51.932;4.278;2023-05-02T09:30:35;102734.09;;;14.60;54.06
37298;BME280;30517;51.932;4.278;2023-05-02T09:33:25;102740.31;;;14.59;53.80
37298;BME280;30517;51.932;4.278;2023-05-02T09:36:08;102734.09;;;14.60;53.82
37298;BME280;30517;51.932;4.278;2023-05-02T09:38:49;102728.72;;;14.54;53.96
37298;BME280;30517;51.932;4.278;2023-05-02T09:41:47;102657.44;;;14.13;53.88
37298;BME280;30517;51.932;4.278;2023-05-02T09:44:36;102737.63;;;14.56;53.85
37298;BME280;30517;51.932;4.278;2023-05-02T09:47:23;102748.28;;;14.59;53.89
37298;BME280;30517;51.932;4.278;2023-05-02T09:50:08;102744.81;;;14.67;53.96
37298;BME280;30517;51.932;4.278;2023-05-02T09:53:07;102745.59;;;14.58;54.00
37298;BME280;30517;51.932;4.278;2023-05-02T09:56:01;102728.75;;;14.57;54.13
37298;BME280;30517;51.932;4.278;2023-05-02T09:58:43;102739.47;;;14.65;53.78
37298;BME280;30517;51.932;4.278;2023-05-02T10:01:24;102753.72;;;14.70;53.94
37298;BME280;30517;51.932;4.278;2023-05-02T10:04:09;102728.81;;;14.62;54.16
37298;BME280;30517;51.932;4.278;2023-05-02T10:06:56;102718.16;;;14.59;53.98
37298;BME280;30517;51.932;4.278;2023-05-02T10:09:42;102720.78;;;14.54;53.86
37298;BME280;30517;51.932;4.278;2023-05-02T10:12:27;102762.59;;;14.74;53.72
37298;BME280;30517;51.932;4.278;2023-05-02T10:15:12;102746.59;;;14.68;53.83
37298;BME280;30517;51.932;4.278;2023-05-02T10:17:57;102722.56;;;14.57;54.02
37298;BME280;30517;51.932;4.278;2023-05-02T10:20:58;102739.41;;;14.60;53.85
37298;BME280;30517;51.932;4.278;2023-05-02T10:23:41;102744.03;;;14.75;54.02
37298;BME280;30517;51.932;4.278;2023-05-02T10:26:26;102743.09;;;14.72;53.64
37298;BME280;30517;51.932;4.278;2023-05-02T10:29:07;102728.00;;;14.68;54.09
37298;BME280;30517;51.932;4.278;2023-05-02T10:31:48;102757.38;;;14.81;54.09
37298;BME280;30517;51.932;4.278;2023-05-02T10:34:31;102752.91;;;14.79;53.79
37298;BME280;30517;51.932;4.278;2023-05-02T10:37:14;102762.69;;;14.85;53.81
37298;BME280;30517;51.932;4.278;2023-05-02T10:39:56;102754.75;;;14.86;54.00
37298;BME280;30517;51.932;4.278;2023-05-02T10:42:41;102765.41;;;14.89;53.63
37298;BME280;30517;51.932;4.278;2023-05-02T10:45:33;102765.41;;;14.89;54.16
37298;BME280;30517;51.932;4.278;2023-05-02T10:48:19;102766.34;;;14.91;53.93
37298;BME280;30517;51.932;4.278;2023-05-02T10:51:01;102750.34;;;14.87;53.69
37298;BME280;30517;51.932;4.278;2023-05-02T10:53:42;102758.34;;;14.90;53.83
37298;BME280;30517;51.932;4.278;2023-05-02T10:56:25;102767.28;;;14.96;53.51
37298;BME280;30517;51.932;4.278;2023-05-02T10:59:39;102774.34;;;14.94;53.72
37298;BME280;30517;51.932;4.278;2023-05-02T11:05:06;102752.06;;;14.85;53.57
37298;BME280;30517;51.932;4.278;2023-05-02T11:07:47;102774.38;;;15.00;53.58
37298;BME280;30517;51.932;4.278;2023-05-02T11:10:28;102770.78;;;14.95;53.66
37298;BME280;30517;51.932;4.278;2023-05-02T11:13:09;102721.84;;;14.72;53.88
37298;BME280;30517;51.932;4.278;2023-05-02T11:18:56;102759.19;;;14.87;53.28
37298;BME280;30517;51.932;4.278;2023-05-02T11:21:37;102788.66;;;15.10;53.60
37298;BME280;30517;51.932;4.278;2023-05-02T11:24:37;102793.97;;;15.09;53.52
37298;BME280;30517;51.932;4.278;2023-05-02T11:30:09;102790.47;;;15.13;53.00
37298;BME280;30517;51.932;4.278;2023-05-02T11:35:34;102800.25;;;15.17;52.81
37298;BME280;30517;51.932;4.278;2023-05-02T11:38:17;102802.03;;;15.19;52.83
37298;BME280;30517;51.932;4.278;2023-05-02T11:40:59;102685.34;;;14.52;53.29
37298;BME280;30517;51.932;4.278;2023-05-02T11:43:44;102785.16;;;15.14;53.18
37298;BME280;30517;51.932;4.278;2023-05-02T11:46:25;102778.94;;;15.14;52.91
37298;BME280;30517;51.932;4.278;2023-05-02T11:49:06;102811.00;;;15.31;53.25
37298;BME280;30517;51.932;4.278;2023-05-02T11:51:47;102786.06;;;15.16;53.53
37298;BME280;30517;51.932;4.278;2023-05-02T11:54:29;102809.22;;;15.30;53.28
37298;BME280;30517;51.932;4.278;2023-05-02T11:57:10;102799.50;;;15.32;53.55
37298;BME280;30517;51.932;4.278;2023-05-02T11:59:52;102819.97;;;15.40;53.46
37298;BME280;30517;51.932;4.278;2023-05-02T12:02:43;102726.38;;;14.85;53.63
37298;BME280;30517;51.932;4.278;2023-05-02T12:05:28;102781.72;;;15.23;53.31
37298;BME280;30517;51.932;4.278;2023-05-02T12:08:17;102806.66;;;15.37;53.42
37298;BME280;30517;51.932;4.278;2023-05-02T12:10:58;102828.94;;;15.55;53.08
37298;BME280;30517;51.932;4.278;2023-05-02T12:13:46;102810.25;;;15.42;53.55
37298;BME280;30517;51.932;4.278;2023-05-02T12:16:27;102829.88;;;15.60;53.30
37298;BME280;30517;51.932;4.278;2023-05-02T12:19:08;102783.56;;;15.33;52.94
37298;BME280;30517;51.932;4.278;2023-05-02T12:21:50;102810.34;;;15.58;53.17
37298;BME280;30517;51.932;4.278;2023-05-02T12:24:31;102832.72;;;15.77;53.01
37298;BME280;30517;51.932;4.278;2023-05-02T12:27:15;102771.22;;;15.44;52.85
37298;BME280;30517;51.932;4.278;2023-05-02T12:29:56;102810.34;;;15.55;52.81
37298;BME280;30517;51.932;4.278;2023-05-02T12:32:37;102850.56;;;15.88;52.36
37298;BME280;30517;51.932;4.278;2023-05-02T12:35:24;102821.22;;;15.82;52.13
37298;BME280;30517;51.932;4.278;2023-05-02T12:38:09;102832.88;;;16.01;52.77
37298;BME280;30517;51.932;4.278;2023-05-02T12:40:54;102843.50;;;15.98;52.74
37298;BME280;30517;51.932;4.278;2023-05-02T12:43:48;102850.72;;;16.10;52.92
37298;BME280;30517;51.932;4.278;2023-05-02T12:46:30;102829.34;;;16.01;52.76
37298;BME280;30517;51.932;4.278;2023-05-02T12:49:11;102846.22;;;16.06;52.78
37298;BME280;30517;51.932;4.278;2023-05-02T12:51:53;102833.84;;;16.09;52.29
37298;BME280;30517;51.932;4.278;2023-05-02T12:54:35;102856.16;;;16.30;52.82
37298;BME280;30517;51.932;4.278;2023-05-02T12:57:23;102874.84;;;16.34;52.61
37298;BME280;30517;51.932;4.278;2023-05-02T13:00:05;102871.31;;;16.42;52.03
37298;BME280;30517;51.932;4.278;2023-05-02T13:02:46;102870.47;;;16.47;52.48
37298;BME280;30517;51.932;4.278;2023-05-02T13:05:27;102833.97;;;16.29;52.02
37298;BME280;30517;51.932;4.278;2023-05-02T13:08:07;102843.78;;;16.44;52.15
37298;BME280;30517;51.932;4.278;2023-05-02T13:10:48;102870.53;;;16.63;51.99
37298;BME280;30517;51.932;4.278;2023-05-02T13:13:29;102874.13;;;16.69;51.84
37298;BME280;30517;51.932;4.278;2023-05-02T13:16:11;102866.13;;;16.74;51.83
37298;BME280;30517;51.932;4.278;2023-05-02T13:18:52;102880.44;;;16.80;51.58
37298;BME280;30517;51.932;4.278;2023-05-02T13:21:33;102868.91;;;16.86;51.74
37298;BME280;30517;51.932;4.278;2023-05-02T13:24:14;102889.34;;;16.92;51.83
37298;BME280;30517;51.932;4.278;2023-05-02T13:26:59;102857.34;;;16.83;47.57
37298;BME280;30517;51.932;4.278;2023-05-02T13:29:41;102859.09;;;16.82;47.65
37298;BME280;30517;51.932;4.278;2023-05-02T13:32:21;102808.38;;;16.65;47.93
37298;BME280;30517;51.932;4.278;2023-05-02T13:35:02;102876.09;;;17.10;48.79
37298;BME280;30517;51.932;4.278;2023-05-02T13:37:43;102876.09;;;17.16;49.29
37298;BME280;30517;51.932;4.278;2023-05-02T13:40:24;102856.53;;;17.07;49.64
37298;BME280;30517;51.932;4.278;2023-05-02T13:43:05;102885.91;;;17.30;49.61
37298;BME280;30517;51.932;4.278;2023-05-02T13:45:46;102878.81;;;17.29;49.95
37298;BME280;30517;51.932;4.278;2023-05-02T13:48:27;102866.34;;;17.21;50.15
37298;BME280;30517;51.932;4.278;2023-05-02T13:51:09;102865.47;;;17.25;50.07
37298;BME280;30517;51.932;4.278;2023-05-02T13:53:50;102896.66;;;17.53;50.39
37298;BME280;30517;51.932;4.278;2023-05-02T13:56:31;102861.94;;;17.40;50.25
37298;BME280;30517;51.932;4.278;2023-05-02T13:59:11;102853.03;;;17.43;50.35
37298;BME280;30517;51.932;4.278;2023-05-02T14:01:52;102869.94;;;17.50;50.44
37298;BME280;30517;51.932;4.278;2023-05-02T14:04:33;102906.44;;;17.78;50.50
37298;BME280;30517;51.932;4.278;2023-05-02T14:07:14;102883.31;;;17.69;50.19
37298;BME280;30517;51.932;4.278;2023-05-02T14:09:55;102907.38;;;17.88;50.16
37298;BME280;30517;51.932;4.278;2023-05-02T14:12:36;102894.03;;;17.88;50.23
37298;BME280;30517;51.932;4.278;2023-05-02T14:15:16;102855.72;;;17.77;50.01
37298;BME280;30517;51.932;4.278;2023-05-02T14:17:57;102892.22;;;18.08;50.16
37298;BME280;30517;51.932;4.278;2023-05-02T14:20:38;102895.78;;;18.15;50.11
37298;BME280;30517;51.932;4.278;2023-05-02T14:23:19;102854.84;;;17.98;49.92
37298;BME280;30517;51.932;4.278;2023-05-02T14:26:00;102823.72;;;17.86;50.07
37298;BME280;30517;51.932;4.278;2023-05-02T14:28:41;102888.63;;;18.32;49.68
37298;BME280;30517;51.932;4.278;2023-05-02T14:31:22;102892.19;;;18.39;49.76
37298;BME280;30517;51.932;4.278;2023-05-02T14:34:03;102858.38;;;18.21;49.79
37298;BME280;30517;51.932;4.278;2023-05-02T14:36:44;102881.47;;;18.45;49.84
37298;BME280;30517;51.932;4.278;2023-05-02T14:39:25;102870.78;;;18.53;49.81